Sao Paulo, Brazil
Current Conditions -  °F | °C
As of 11:00 PM on Sunday 23 Nov 2014 (Local Time) from SBMT Reporting Station
Haze Haze  
Wind Chill: 66°   Ceiling: 800
Heat Index: 66°   Visibility: 3mi
Dew Point: 63°   Wind: 7mph
Humidity: 88%   Direction: 150°SSE
Pressure: 30.09"   Gusts: NA
Location:  23.53°S, 46.63°W
Report Text: SBMT 240100Z 15006KT 5000 BR OVC008 19/17 Q1019
Loading
Personal Weather Stations






























Interactive Weather Map New forecast layout! Learn more

10-Day Weather Forecast

Advertisements
Track Severe Weather on mobile